createdAt,value
2022-12-06T00:01:09.892Z,117.30
2022-12-06T00:03:48.186Z,113.70
2022-12-06T00:06:27.802Z,114.30
2022-12-06T00:09:04.378Z,114.40
2022-12-06T00:11:40.508Z,111.30
2022-12-06T00:14:16.814Z,115.20
2022-12-06T00:16:52.920Z,115.60
2022-12-06T00:19:28.851Z,111.20
2022-12-06T00:22:04.330Z,103.30
2022-12-06T00:24:40.080Z,112.80
2022-12-06T00:27:15.732Z,105.50
2022-12-06T00:29:51.176Z,118.30
2022-12-06T00:32:26.671Z,108.00
2022-12-06T00:35:02.120Z,110.90
2022-12-06T00:37:37.716Z,108.70
2022-12-06T00:40:15.416Z,114.90
2022-12-06T00:42:50.863Z,108.30
2022-12-06T00:45:26.305Z,111.10
2022-12-06T00:48:01.749Z,103.50
2022-12-06T00:50:37.091Z,100.30
2022-12-06T00:53:12.534Z,107.00
2022-12-06T00:55:48.573Z,104.50
2022-12-06T00:58:24.564Z,98.80
2022-12-06T01:01:10.187Z,97.30
2022-12-06T01:03:47.471Z,92.00
2022-12-06T01:06:26.199Z,88.90
2022-12-06T01:09:05.075Z,86.70
2022-12-06T01:11:40.857Z,87.00
2022-12-06T01:14:16.148Z,83.10
2022-12-06T01:16:51.565Z,87.90
2022-12-06T01:19:27.243Z,80.40
2022-12-06T01:22:02.496Z,87.70
2022-12-06T01:24:38.339Z,85.90
2022-12-06T01:27:13.577Z,83.70
2022-12-06T01:29:48.923Z,83.90
2022-12-06T01:32:24.263Z,81.30
2022-12-06T01:34:59.617Z,81.60
2022-12-06T01:37:35.050Z,79.00
2022-12-06T01:40:15.028Z,79.00
2022-12-06T01:42:50.307Z,73.10
2022-12-06T01:45:26.572Z,81.10
2022-12-06T01:48:03.176Z,75.10
2022-12-06T01:50:40.323Z,81.50
2022-12-06T01:53:20.222Z,79.90
2022-12-06T01:55:59.539Z,83.20
2022-12-06T01:58:42.378Z,74.40
2022-12-06T02:01:18.894Z,79.50
2022-12-06T02:03:57.785Z,86.10
2022-12-06T02:06:35.051Z,79.00
2022-12-06T02:09:14.463Z,85.20
2022-12-06T02:11:50.992Z,86.40
2022-12-06T02:14:33.820Z,81.80
2022-12-06T02:17:33.580Z,83.90
2022-12-06T02:20:33.812Z,76.20
2022-12-06T02:24:00.760Z,73.10
2022-12-06T02:26:46.688Z,80.60
2022-12-06T02:30:18.601Z,65.40
2022-12-06T02:33:05.794Z,66.80
2022-12-06T02:35:50.150Z,69.40
2022-12-06T02:38:37.198Z,71.90
2022-12-06T02:41:23.384Z,69.30
2022-12-06T02:44:07.464Z,44.80
2022-12-06T02:46:44.852Z,72.70
2022-12-06T02:49:22.301Z,66.60
2022-12-06T02:52:00.031Z,61.10
2022-12-06T02:54:36.767Z,66.40
2022-12-06T02:57:14.356Z,66.80
2022-12-06T02:59:59.283Z,70.50
2022-12-06T03:02:38.066Z,64.00
2022-12-06T03:05:27.513Z,55.30
2022-12-06T03:08:16.999Z,57.70
2022-12-06T03:11:01.738Z,60.40
2022-12-06T03:13:52.637Z,56.70
2022-12-06T03:16:36.132Z,64.60
2022-12-06T03:19:21.036Z,65.40
2022-12-06T03:22:07.914Z,56.10
2022-12-06T03:24:48.184Z,65.70
2022-12-06T03:27:26.509Z,60.90
2022-12-06T03:30:09.704Z,54.80
2022-12-06T03:32:50.695Z,59.70
2022-12-06T03:35:33.841Z,52.60
2022-12-06T03:38:16.027Z,48.90
2022-12-06T03:40:58.440Z,52.40
2022-12-06T03:43:35.631Z,48.10
2022-12-06T03:46:19.050Z,53.60
2022-12-06T03:49:03.163Z,62.70
2022-12-06T03:51:42.364Z,55.30
2022-12-06T03:54:18.640Z,49.90
2022-12-06T03:56:54.904Z,51.20
2022-12-06T03:59:31.131Z,51.00
2022-12-06T04:02:07.365Z,57.70
2022-12-06T04:04:44.116Z,59.60
2022-12-06T04:07:22.867Z,50.60
2022-12-06T04:10:03.513Z,53.00
2022-12-06T04:13:06.332Z,47.80
2022-12-06T04:15:44.209Z,54.30
2022-12-06T04:18:20.420Z,53.80
2022-12-06T04:21:34.753Z,56.50
2022-12-06T04:24:12.098Z,60.70
2022-12-06T04:26:48.230Z,51.50
2022-12-06T04:29:43.302Z,48.50
2022-12-06T04:32:37.467Z,56.40
2022-12-06T04:35:31.901Z,67.90
2022-12-06T04:38:25.708Z,53.10
2022-12-06T04:41:01.973Z,52.60
2022-12-06T04:43:44.510Z,53.10
2022-12-06T04:46:20.983Z,58.60
2022-12-06T04:48:57.458Z,65.20
2022-12-06T04:51:34.193Z,59.80
2022-12-06T04:54:10.870Z,52.30
2022-12-06T04:56:47.129Z,58.60
2022-12-06T04:59:23.392Z,57.30
2022-12-06T05:02:00.475Z,57.60
2022-12-06T05:04:37.449Z,62.20
2022-12-06T05:07:14.086Z,55.00
2022-12-06T05:09:50.211Z,50.50
2022-12-06T05:12:26.420Z,51.60
2022-12-06T05:15:02.580Z,54.30
2022-12-06T05:17:38.876Z,53.00
2022-12-06T05:20:16.863Z,51.50
2022-12-06T05:22:53.085Z,72.50
2022-12-06T05:25:29.304Z,67.30
2022-12-06T05:28:06.046Z,50.40
2022-12-06T05:30:42.361Z,53.20
2022-12-06T05:33:18.605Z,58.10
2022-12-06T05:35:54.854Z,50.90
2022-12-06T05:38:33.607Z,53.00
2022-12-06T05:41:11.950Z,54.00
2022-12-06T05:43:48.166Z,50.90
2022-12-06T05:46:24.492Z,51.80
2022-12-06T05:49:00.898Z,52.70
2022-12-06T05:51:37.288Z,46.20
2022-12-06T05:54:13.525Z,47.20
2022-12-06T05:56:51.793Z,49.20
2022-12-06T05:59:28.095Z,47.00
2022-12-06T06:02:04.467Z,50.90
2022-12-06T06:04:40.802Z,51.10
2022-12-06T06:07:16.970Z,51.50
2022-12-06T06:09:53.154Z,50.80
2022-12-06T06:12:29.317Z,50.00
2022-12-06T06:15:07.423Z,50.30
2022-12-06T06:17:44.411Z,44.90
2022-12-06T06:20:20.871Z,46.50
2022-12-06T06:22:57.339Z,44.60
2022-12-06T06:25:33.603Z,49.10
2022-12-06T06:28:09.961Z,51.20
2022-12-06T06:30:46.458Z,42.10
2022-12-06T06:33:22.723Z,47.50
2022-12-06T06:35:58.968Z,48.30
2022-12-06T06:38:35.235Z,46.90
2022-12-06T06:41:12.519Z,51.20
2022-12-06T06:43:48.664Z,49.90
2022-12-06T06:46:26.339Z,51.50
2022-12-06T06:49:02.598Z,51.50
2022-12-06T06:51:39.211Z,48.20
2022-12-06T06:54:15.756Z,49.70
2022-12-06T06:56:52.956Z,49.20
2022-12-06T06:59:29.859Z,44.90
2022-12-06T07:02:06.280Z,44.50
2022-12-06T07:04:42.992Z,45.50
2022-12-06T07:07:21.206Z,41.00
2022-12-06T07:09:57.741Z,46.00
2022-12-06T07:12:34.167Z,43.20
2022-12-06T07:15:12.693Z,43.10
2022-12-06T07:17:48.995Z,44.10
2022-12-06T07:20:25.579Z,43.10
2022-12-06T07:23:02.761Z,40.80
2022-12-06T07:25:38.911Z,47.20
2022-12-06T07:28:15.123Z,47.80
2022-12-06T07:30:51.378Z,44.00
2022-12-06T07:33:27.714Z,40.60
2022-12-06T07:36:11.869Z,38.30
2022-12-06T07:38:53.993Z,39.20
2022-12-06T07:41:49.394Z,36.90
2022-12-06T07:45:02.000Z,33.20
2022-12-06T07:47:46.486Z,34.50
2022-12-06T07:50:25.557Z,37.50
2022-12-06T07:53:03.229Z,37.30
2022-12-06T07:55:39.463Z,36.40
2022-12-06T07:58:15.713Z,35.40
2022-12-06T08:00:52.220Z,36.30
2022-12-06T08:03:28.367Z,39.30
2022-12-06T08:06:05.677Z,35.00
2022-12-06T08:08:41.931Z,36.30
2022-12-06T08:11:18.230Z,35.80
2022-12-06T08:13:54.461Z,32.70
2022-12-06T08:16:30.982Z,36.80
2022-12-06T08:19:08.038Z,35.20
2022-12-06T08:21:44.384Z,37.50
2022-12-06T08:24:21.586Z,34.90
2022-12-06T08:26:59.434Z,34.90
2022-12-06T08:29:35.728Z,34.90
2022-12-06T08:32:12.688Z,33.60
2022-12-06T08:34:49.000Z,35.00
2022-12-06T08:37:25.234Z,31.60
2022-12-06T08:40:01.529Z,33.60
2022-12-06T08:42:38.446Z,33.40
2022-12-06T08:45:15.597Z,29.80
2022-12-06T08:47:51.849Z,32.00
2022-12-06T08:50:28.015Z,30.00
2022-12-06T08:53:04.228Z,32.50
2022-12-06T08:55:41.741Z,29.90
2022-12-06T08:58:17.953Z,32.70
2022-12-06T09:00:54.268Z,30.60
2022-12-06T09:03:30.742Z,32.30
2022-12-06T09:06:10.647Z,33.40
2022-12-06T09:08:48.395Z,33.10
2022-12-06T09:11:24.693Z,35.10
2022-12-06T09:14:00.962Z,29.60
2022-12-06T09:16:37.801Z,29.30
2022-12-06T09:19:15.033Z,32.30
2022-12-06T09:21:51.144Z,32.70
2022-12-06T09:24:27.750Z,31.00
2022-12-06T09:27:04.461Z,32.40
2022-12-06T09:29:42.367Z,32.90
2022-12-06T09:32:19.050Z,33.10
2022-12-06T09:34:55.445Z,30.20
2022-12-06T09:37:33.739Z,32.40
2022-12-06T09:40:22.860Z,31.70
2022-12-06T09:43:27.853Z,36.20
2022-12-06T09:46:32.912Z,32.90
2022-12-06T09:49:32.421Z,29.40
2022-12-06T09:52:42.751Z,30.40
2022-12-06T09:55:43.070Z,26.60
2022-12-06T09:58:37.586Z,29.00
2022-12-06T10:01:34.651Z,30.30
2022-12-06T10:04:47.921Z,28.40
2022-12-06T10:07:39.764Z,25.00
2022-12-06T10:13:14.058Z,25.10
2022-12-06T10:16:07.080Z,26.40
2022-12-06T10:19:04.594Z,25.80
2022-12-06T10:22:03.158Z,25.70
2022-12-06T10:25:02.801Z,25.00
2022-12-06T10:27:49.447Z,24.80
2022-12-06T10:30:25.979Z,25.50
2022-12-06T10:33:18.555Z,23.80
2022-12-06T10:36:02.688Z,27.40
2022-12-06T10:38:50.584Z,21.90
2022-12-06T10:41:37.593Z,24.20
2022-12-06T10:44:27.161Z,22.80
2022-12-06T10:47:13.227Z,22.00
2022-12-06T10:50:01.902Z,24.10
2022-12-06T10:52:47.899Z,20.20
2022-12-06T10:55:33.094Z,24.20
2022-12-06T10:58:24.556Z,27.60
2022-12-06T11:01:08.975Z,24.00
2022-12-06T11:03:54.214Z,20.80
2022-12-06T11:06:41.117Z,21.60
2022-12-06T11:09:31.568Z,24.20
2022-12-06T11:12:26.654Z,25.80
2022-12-06T11:15:23.696Z,22.90
2022-12-06T11:18:12.859Z,23.00
2022-12-06T11:20:59.584Z,25.20
2022-12-06T11:23:49.252Z,25.50
2022-12-06T11:26:36.125Z,25.30
2022-12-06T11:29:18.154Z,24.10
2022-12-06T11:32:01.165Z,23.00
2022-12-06T11:34:48.160Z,22.30
2022-12-06T11:37:28.424Z,21.60
2022-12-06T11:40:23.803Z,26.90
2022-12-06T11:43:03.979Z,25.10
2022-12-06T11:45:45.517Z,28.80
2022-12-06T11:48:26.761Z,24.70
2022-12-06T11:51:03.628Z,26.50
2022-12-06T11:53:54.703Z,23.80
2022-12-06T11:56:36.948Z,26.40
2022-12-06T11:59:33.216Z,24.40
2022-12-06T12:02:28.236Z,27.10
2022-12-06T12:05:18.804Z,25.60
2022-12-06T12:08:03.200Z,22.80
2022-12-06T12:10:44.124Z,25.10
2022-12-06T12:13:45.464Z,25.30
2022-12-06T12:16:28.354Z,25.50
2022-12-06T12:19:22.436Z,27.80
2022-12-06T12:22:01.415Z,27.40
2022-12-06T12:25:18.064Z,29.20
2022-12-06T12:27:53.442Z,26.10
2022-12-06T12:30:35.534Z,27.00
2022-12-06T12:33:32.303Z,25.10
2022-12-06T12:36:29.773Z,27.80
2022-12-06T12:39:06.546Z,24.70
2022-12-06T12:41:47.104Z,29.80
2022-12-06T12:44:40.008Z,26.20
2022-12-06T12:47:23.054Z,24.80
2022-12-06T12:50:23.991Z,25.10
2022-12-06T12:53:01.445Z,27.10
2022-12-06T12:55:39.283Z,23.90
2022-12-06T12:58:16.271Z,24.70
2022-12-06T13:00:54.303Z,26.10
2022-12-06T13:06:37.341Z,27.00
2022-12-06T13:09:25.326Z,26.00
2022-12-06T13:12:12.955Z,27.70
2022-12-06T13:14:59.134Z,27.90
2022-12-06T13:17:43.694Z,28.70
2022-12-06T13:20:30.779Z,27.60
2022-12-06T13:23:13.615Z,24.00
2022-12-06T13:25:59.017Z,26.90
2022-12-06T13:28:43.154Z,24.00
2022-12-06T13:31:26.335Z,26.70
2022-12-06T13:34:08.571Z,29.50
2022-12-06T13:36:46.670Z,25.60
2022-12-06T13:39:54.408Z,28.70
2022-12-06T13:42:48.671Z,26.20
2022-12-06T13:45:49.609Z,23.00
2022-12-06T13:48:55.148Z,27.30
2022-12-06T13:51:52.741Z,25.70
2022-12-06T13:54:45.665Z,25.20
2022-12-06T13:57:33.570Z,19.60
2022-12-06T14:00:58.713Z,16.10
2022-12-06T14:03:57.896Z,11.50
2022-12-06T14:06:49.271Z,12.10
2022-12-06T14:09:28.685Z,8.90
2022-12-06T14:12:19.194Z,9.00
2022-12-06T14:15:08.514Z,8.20
2022-12-06T14:18:02.481Z,7.70
2022-12-06T14:20:44.474Z,8.50
2022-12-06T14:23:38.467Z,7.10
2022-12-06T14:26:25.907Z,10.60
2022-12-06T14:29:03.483Z,7.60
2022-12-06T14:31:44.454Z,10.40
2022-12-06T14:34:32.860Z,7.40
2022-12-06T14:37:25.271Z,8.30
2022-12-06T14:40:22.781Z,8.20
2022-12-06T14:43:19.516Z,8.10
2022-12-06T14:45:58.592Z,7.00
2022-12-06T14:48:51.081Z,7.30
2022-12-06T14:51:36.454Z,8.30
2022-12-06T14:54:43.215Z,9.60
2022-12-06T14:57:36.094Z,9.20
2022-12-06T15:00:27.378Z,11.30
2022-12-06T15:06:24.468Z,7.40
2022-12-06T15:09:17.776Z,7.90
2022-12-06T15:12:34.242Z,9.10
2022-12-06T15:15:41.898Z,8.90
2022-12-06T15:18:27.665Z,8.70
2022-12-06T15:21:04.167Z,9.50
2022-12-06T15:23:49.868Z,11.00
2022-12-06T15:26:27.753Z,10.10
2022-12-06T15:29:03.882Z,10.10
2022-12-06T15:31:42.711Z,11.40
2022-12-06T15:34:29.613Z,11.80
2022-12-06T15:40:04.358Z,19.50
2022-12-06T15:42:40.683Z,12.50
2022-12-06T15:45:20.603Z,12.20
2022-12-06T15:47:57.719Z,13.50
2022-12-06T15:50:34.131Z,13.20
2022-12-06T15:53:13.892Z,15.40
2022-12-06T15:55:50.661Z,14.40
2022-12-06T15:58:27.600Z,15.90
2022-12-06T16:01:04.919Z,12.70
2022-12-06T16:03:41.353Z,14.50
2022-12-06T16:06:21.993Z,13.60
2022-12-06T16:08:59.211Z,15.10
2022-12-06T16:11:35.599Z,13.00
2022-12-06T16:14:12.470Z,15.20
2022-12-06T16:16:51.120Z,15.70
2022-12-06T16:19:47.929Z,14.00
2022-12-06T16:22:44.250Z,15.40
2022-12-06T16:25:20.820Z,16.70
2022-12-06T16:27:57.082Z,16.80
2022-12-06T16:30:39.307Z,16.10
2022-12-06T16:33:22.402Z,16.70
2022-12-06T16:36:12.348Z,21.20
2022-12-06T16:38:54.271Z,19.70
2022-12-06T16:41:35.745Z,21.70
2022-12-06T16:44:12.193Z,18.00
2022-12-06T16:46:49.959Z,21.50
2022-12-06T16:49:46.318Z,19.40
2022-12-06T16:52:23.022Z,19.50
2022-12-06T16:54:59.588Z,23.40
2022-12-06T16:57:38.792Z,21.50
2022-12-06T17:00:19.802Z,23.00
2022-12-06T17:02:56.359Z,21.00
2022-12-06T17:05:33.362Z,21.00
2022-12-06T17:08:09.916Z,23.20
2022-12-06T17:10:46.191Z,22.70
2022-12-06T17:13:22.539Z,21.70
2022-12-06T17:15:58.849Z,21.10
2022-12-06T17:18:35.374Z,18.10
2022-12-06T17:21:17.101Z,21.40
2022-12-06T17:23:53.804Z,20.90
2022-12-06T17:26:32.885Z,21.40
2022-12-06T17:29:09.823Z,21.30
2022-12-06T17:31:46.148Z,21.10
2022-12-06T17:34:25.961Z,21.40
2022-12-06T17:37:02.774Z,19.00
2022-12-06T17:39:39.679Z,20.20
2022-12-06T17:42:34.698Z,19.60
2022-12-06T17:45:12.995Z,20.30
2022-12-06T17:47:49.891Z,20.00
2022-12-06T17:50:26.170Z,19.80
2022-12-06T17:53:02.414Z,18.20
2022-12-06T17:55:38.707Z,19.50
2022-12-06T17:58:15.146Z,18.50
2022-12-06T18:00:51.672Z,17.70
2022-12-06T18:03:32.289Z,19.10
2022-12-06T18:06:10.612Z,17.10
2022-12-06T18:08:46.955Z,19.80
2022-12-06T18:11:24.361Z,21.70
2022-12-06T18:14:01.749Z,137.70
2022-12-06T18:16:41.345Z,21.10
2022-12-06T18:19:21.644Z,17.40
2022-12-06T18:21:57.994Z,16.50
2022-12-06T18:24:36.058Z,18.10
2022-12-06T18:27:13.694Z,17.90
2022-12-06T18:29:50.907Z,14.70
2022-12-06T18:32:31.208Z,20.00
2022-12-06T18:35:10.215Z,18.60
2022-12-06T18:37:47.062Z,20.60
2022-12-06T18:40:23.993Z,18.30
2022-12-06T18:43:00.192Z,17.60
2022-12-06T18:45:36.541Z,18.50
2022-12-06T18:48:13.580Z,17.70
2022-12-06T18:50:50.100Z,17.90
2022-12-06T18:53:27.078Z,16.30
2022-12-06T18:56:03.983Z,17.40
2022-12-06T18:58:40.922Z,20.50
2022-12-06T19:01:21.970Z,16.30
2022-12-06T19:04:01.145Z,17.30
2022-12-06T19:06:40.294Z,20.60
2022-12-06T19:09:18.763Z,22.50
2022-12-06T19:11:55.277Z,18.50
2022-12-06T19:14:31.821Z,18.80
2022-12-06T19:17:08.861Z,19.80
2022-12-06T19:19:45.739Z,18.00
2022-12-06T19:22:22.916Z,16.60
2022-12-06T19:24:59.135Z,15.90
2022-12-06T19:27:35.701Z,18.40
2022-12-06T19:30:16.683Z,17.20
2022-12-06T19:32:52.855Z,14.80
2022-12-06T19:35:29.399Z,13.50
2022-12-06T19:38:05.677Z,15.60
2022-12-06T19:40:44.997Z,13.80
2022-12-06T19:43:44.924Z,16.50
2022-12-06T19:46:26.232Z,14.60
2022-12-06T19:49:06.978Z,14.70
2022-12-06T19:51:46.587Z,12.70
2022-12-06T19:54:27.967Z,16.60
2022-12-06T19:57:05.858Z,16.70
2022-12-06T19:59:42.817Z,15.90
2022-12-06T20:02:19.485Z,15.30
2022-12-06T20:04:56.064Z,13.60
2022-12-06T20:07:33.758Z,16.60
2022-12-06T20:10:13.133Z,12.70
2022-12-06T20:12:50.305Z,13.20
2022-12-06T20:15:26.746Z,16.70
2022-12-06T20:18:03.456Z,15.50
2022-12-06T20:20:39.813Z,20.90
2022-12-06T20:23:16.525Z,25.40
2022-12-06T20:25:58.895Z,23.70
2022-12-06T20:28:35.563Z,22.30
2022-12-06T20:31:23.676Z,19.60
2022-12-06T20:34:02.173Z,22.00
2022-12-06T20:36:38.722Z,18.50
2022-12-06T20:39:26.779Z,18.30
2022-12-06T20:42:05.571Z,16.50
2022-12-06T20:44:42.508Z,16.30
2022-12-06T20:47:19.939Z,14.30
2022-12-06T20:49:56.612Z,17.40
2022-12-06T20:52:33.047Z,15.80
2022-12-06T20:55:11.777Z,15.30
2022-12-06T20:57:49.331Z,11.80
2022-12-06T21:00:28.190Z,18.30
2022-12-06T21:03:04.426Z,20.60
2022-12-06T21:05:45.036Z,15.30
2022-12-06T21:08:21.725Z,20.20
2022-12-06T21:11:22.251Z,21.00
2022-12-06T21:13:58.884Z,25.40
2022-12-06T21:16:38.373Z,17.20
2022-12-06T21:19:18.322Z,18.40
2022-12-06T21:21:59.571Z,19.80
2022-12-06T21:24:36.927Z,17.60
2022-12-06T21:27:13.155Z,16.30
2022-12-06T21:29:49.653Z,16.10
2022-12-06T21:32:26.537Z,18.80
2022-12-06T21:35:02.898Z,16.10
2022-12-06T21:37:39.199Z,17.20
2022-12-06T21:40:17.549Z,13.30
2022-12-06T21:42:54.247Z,13.50
2022-12-06T21:45:30.455Z,12.60
2022-12-06T21:48:08.946Z,13.40
2022-12-06T21:50:45.186Z,11.80
2022-12-06T21:53:21.657Z,11.50
2022-12-06T21:55:57.920Z,13.30
2022-12-06T21:58:35.823Z,16.00
2022-12-06T22:01:17.018Z,12.70
2022-12-06T22:03:57.332Z,14.00
2022-12-06T22:06:35.829Z,13.00
2022-12-06T22:09:12.833Z,14.20
2022-12-06T22:11:49.327Z,12.40
2022-12-06T22:14:25.887Z,10.40
2022-12-06T22:17:02.254Z,11.10
2022-12-06T22:19:39.641Z,11.30
2022-12-06T22:22:16.010Z,12.90
2022-12-06T22:24:52.374Z,10.20
2022-12-06T22:27:28.772Z,11.80
2022-12-06T22:30:05.516Z,10.10
2022-12-06T22:32:41.660Z,10.90
2022-12-06T22:35:18.555Z,12.90
2022-12-06T22:37:54.818Z,11.30
2022-12-06T22:40:31.288Z,13.10
2022-12-06T22:43:10.942Z,12.40
2022-12-06T22:45:47.294Z,10.20
2022-12-06T22:48:23.541Z,12.60
2022-12-06T22:51:09.759Z,11.80
2022-12-06T22:53:48.777Z,13.30
2022-12-06T22:56:26.536Z,13.40
2022-12-06T22:59:04.890Z,9.80
2022-12-06T23:01:41.422Z,12.80
2022-12-06T23:04:17.894Z,10.90
2022-12-06T23:06:54.300Z,10.50
2022-12-06T23:09:30.425Z,11.90
2022-12-06T23:12:07.547Z,11.80
2022-12-06T23:14:44.115Z,11.50
2022-12-06T23:17:20.479Z,11.20
2022-12-06T23:19:56.745Z,11.60
2022-12-06T23:22:35.816Z,13.00
2022-12-06T23:25:13.487Z,11.00
2022-12-06T23:27:49.802Z,11.80
2022-12-06T23:30:26.498Z,11.60
2022-12-06T23:33:02.624Z,13.40
2022-12-06T23:35:38.923Z,13.90
2022-12-06T23:38:15.049Z,10.20
2022-12-06T23:40:51.187Z,11.20
2022-12-06T23:43:27.509Z,10.90
2022-12-06T23:46:07.376Z,11.20
2022-12-06T23:48:43.713Z,11.80
2022-12-06T23:51:23.514Z,15.90
2022-12-06T23:54:02.854Z,10.80
2022-12-06T23:56:42.597Z,8.40
2022-12-06T23:59:20.110Z,11.00
